createdAt,value
2018-05-07T00:02:03.372Z,5.20
2018-05-07T00:04:31.496Z,4.33
2018-05-07T00:06:59.668Z,4.47
2018-05-07T00:09:27.839Z,4.85
2018-05-07T00:11:55.928Z,4.70
2018-05-07T00:14:24.170Z,4.70
2018-05-07T00:16:52.286Z,4.80
2018-05-07T00:19:20.409Z,5.30
2018-05-07T00:21:48.591Z,5.00
2018-05-07T00:24:16.701Z,4.73
2018-05-07T00:26:44.820Z,5.80
2018-05-07T00:29:12.980Z,5.23
2018-05-07T00:31:41.114Z,4.95
2018-05-07T00:34:09.228Z,5.30
2018-05-07T00:36:37.515Z,5.10
2018-05-07T00:39:05.641Z,4.80
2018-05-07T00:41:33.773Z,5.30
2018-05-07T00:44:01.903Z,5.07
2018-05-07T00:46:30.010Z,5.80
2018-05-07T00:48:58.127Z,5.73
2018-05-07T00:51:26.282Z,5.15
2018-05-07T00:53:54.398Z,5.60
2018-05-07T00:56:22.530Z,5.40
2018-05-07T00:58:50.672Z,5.30
2018-05-07T01:01:18.784Z,5.60
2018-05-07T01:03:46.892Z,5.70
2018-05-07T01:06:15.049Z,5.80
2018-05-07T01:08:43.169Z,6.27
2018-05-07T01:11:11.293Z,5.90
2018-05-07T01:13:39.464Z,5.73
2018-05-07T01:16:07.576Z,5.30
2018-05-07T01:18:35.698Z,5.47
2018-05-07T01:21:03.933Z,5.70
2018-05-07T01:23:32.047Z,5.97
2018-05-07T01:26:00.185Z,5.60
2018-05-07T01:28:28.299Z,4.97
2018-05-07T01:30:56.417Z,5.12
2018-05-07T01:33:24.550Z,5.00
2018-05-07T01:35:52.719Z,5.30
2018-05-07T01:38:20.828Z,5.70
2018-05-07T01:40:48.951Z,5.73
2018-05-07T01:43:17.068Z,5.75
2018-05-07T01:45:45.199Z,6.18
2018-05-07T01:48:13.349Z,5.30
2018-05-07T01:50:41.441Z,5.80
2018-05-07T01:53:09.963Z,5.83
2018-05-07T01:55:38.088Z,5.57
2018-05-07T01:58:06.212Z,5.57
2018-05-07T02:00:34.328Z,5.50
2018-05-07T02:03:02.465Z,5.97
2018-05-07T02:05:30.589Z,5.80
2018-05-07T02:07:58.721Z,6.20
2018-05-07T02:10:26.833Z,6.23
2018-05-07T02:12:54.961Z,5.87
2018-05-07T02:15:23.079Z,5.00
2018-05-07T02:17:51.196Z,6.40
2018-05-07T02:20:19.339Z,4.80
2018-05-07T02:22:47.460Z,5.70
2018-05-07T02:25:15.578Z,5.68
2018-05-07T02:27:43.700Z,6.23
2018-05-07T02:30:11.809Z,5.60
2018-05-07T02:32:39.919Z,6.43
2018-05-07T02:35:08.062Z,5.90
2018-05-07T02:37:36.206Z,7.23
2018-05-07T02:40:04.311Z,5.80
2018-05-07T02:42:32.442Z,6.87
2018-05-07T02:45:00.552Z,7.23
2018-05-07T02:47:28.663Z,6.77
2018-05-07T02:49:56.791Z,6.10
2018-05-07T02:52:24.898Z,6.13
2018-05-07T02:54:53.029Z,6.80
2018-05-07T02:57:21.147Z,7.10
2018-05-07T02:59:49.254Z,6.60
2018-05-07T03:02:17.355Z,6.70
2018-05-07T03:04:45.483Z,7.00
2018-05-07T03:07:13.597Z,6.40
2018-05-07T03:09:41.719Z,6.77
2018-05-07T03:12:09.919Z,6.53
2018-05-07T03:14:37.978Z,6.70
2018-05-07T03:17:06.152Z,6.17
2018-05-07T03:19:34.258Z,7.30
2018-05-07T03:22:02.377Z,7.33
2018-05-07T03:24:30.491Z,8.07
2018-05-07T03:26:58.607Z,7.60
2018-05-07T03:29:26.713Z,7.12
2018-05-07T03:31:54.825Z,7.43
2018-05-07T03:34:22.955Z,8.20
2018-05-07T03:36:51.056Z,7.20
2018-05-07T03:39:19.166Z,7.47
2018-05-07T03:41:47.282Z,7.60
2018-05-07T03:44:15.407Z,7.70
2018-05-07T03:46:43.537Z,8.60
2018-05-07T03:49:11.661Z,9.00
2018-05-07T03:51:39.775Z,9.60
2018-05-07T03:54:07.896Z,8.20
2018-05-07T03:56:36.011Z,7.40
2018-05-07T03:59:04.124Z,8.17
2018-05-07T04:01:32.242Z,8.27
2018-05-07T04:04:00.359Z,8.40
2018-05-07T04:06:28.467Z,7.80
2018-05-07T04:08:56.583Z,7.47
2018-05-07T04:11:24.715Z,7.90
2018-05-07T04:13:53.714Z,8.50
2018-05-07T04:16:33.868Z,8.37
2018-05-07T04:19:13.807Z,8.57
2018-05-07T04:21:41.939Z,8.07
2018-05-07T04:24:10.069Z,7.82
2018-05-07T04:26:38.192Z,8.70
2018-05-07T04:29:06.453Z,6.87
2018-05-07T04:31:34.571Z,9.07
2018-05-07T04:34:02.705Z,7.35
2018-05-07T04:36:30.851Z,8.77
2018-05-07T04:38:58.979Z,8.17
2018-05-07T04:41:27.098Z,10.32
2018-05-07T04:43:55.265Z,8.77
2018-05-07T04:46:23.387Z,8.37
2018-05-07T04:48:51.587Z,7.83
2018-05-07T04:51:19.680Z,6.83
2018-05-07T04:53:47.840Z,7.80
2018-05-07T04:56:15.946Z,6.50
2018-05-07T04:58:44.234Z,7.57
2018-05-07T05:01:12.349Z,6.77
2018-05-07T05:03:40.485Z,6.90
2018-05-07T05:06:08.613Z,6.80
2018-05-07T05:08:36.742Z,7.30
2018-05-07T05:11:04.872Z,5.70
2018-05-07T05:13:33.023Z,6.53
2018-05-07T05:16:01.135Z,6.60
2018-05-07T05:18:29.247Z,6.30
2018-05-07T05:20:57.426Z,7.67
2018-05-07T05:23:25.541Z,7.27
2018-05-07T05:25:53.660Z,6.60
2018-05-07T05:28:21.795Z,6.80
2018-05-07T05:30:50.139Z,7.20
2018-05-07T05:33:18.292Z,7.28
2018-05-07T05:35:46.417Z,7.37
2018-05-07T05:38:14.544Z,8.30
2018-05-07T05:40:42.674Z,7.57
2018-05-07T05:43:10.802Z,7.27
2018-05-07T05:45:38.911Z,6.97
2018-05-07T05:48:07.035Z,6.40
2018-05-07T05:50:35.172Z,6.57
2018-05-07T05:53:03.292Z,6.53
2018-05-07T05:55:31.428Z,7.10
2018-05-07T05:57:59.570Z,6.00
2018-05-07T06:00:27.707Z,6.17
2018-05-07T06:02:55.810Z,6.83
2018-05-07T06:05:23.939Z,6.37
2018-05-07T06:07:52.057Z,7.40
2018-05-07T06:10:20.185Z,6.87
2018-05-07T06:12:49.025Z,6.47
2018-05-07T06:15:17.129Z,6.60
2018-05-07T06:17:45.244Z,7.57
2018-05-07T06:20:13.362Z,7.53
2018-05-07T06:22:41.480Z,5.73
2018-05-07T06:25:09.757Z,4.40
2018-05-07T06:27:37.896Z,5.20
2018-05-07T06:30:06.023Z,4.40
2018-05-07T06:32:34.128Z,4.37
2018-05-07T06:35:02.258Z,4.60
2018-05-07T06:37:30.369Z,4.23
2018-05-07T06:39:58.489Z,5.10
2018-05-07T06:42:26.674Z,4.30
2018-05-07T06:44:54.787Z,4.73
2018-05-07T06:47:22.931Z,4.70
2018-05-07T06:49:51.066Z,5.30
2018-05-07T06:52:19.187Z,5.03
2018-05-07T06:54:47.288Z,5.03
2018-05-07T06:57:15.577Z,4.80
2018-05-07T06:59:43.693Z,5.30
2018-05-07T07:02:11.827Z,5.20
2018-05-07T07:04:39.930Z,4.80
2018-05-07T07:07:08.062Z,4.90
2018-05-07T07:09:36.229Z,5.30
2018-05-07T07:12:04.374Z,5.40
2018-05-07T07:14:32.487Z,4.70
2018-05-07T07:17:00.591Z,4.70
2018-05-07T07:19:28.717Z,4.93
2018-05-07T07:21:56.867Z,5.03
2018-05-07T07:24:24.995Z,5.47
2018-05-07T07:26:53.118Z,4.17
2018-05-07T07:29:21.244Z,4.72
2018-05-07T07:31:49.446Z,5.73
2018-05-07T07:34:17.630Z,4.90
2018-05-07T07:36:45.735Z,5.37
2018-05-07T07:39:13.858Z,5.62
2018-05-07T07:41:41.979Z,4.90
2018-05-07T07:44:10.096Z,5.10
2018-05-07T07:46:38.205Z,5.10
2018-05-07T07:49:06.447Z,5.30
2018-05-07T07:51:34.561Z,5.80
2018-05-07T07:54:02.682Z,6.03
2018-05-07T07:56:30.812Z,6.90
2018-05-07T07:58:58.936Z,5.97
2018-05-07T08:01:27.047Z,5.50
2018-05-07T08:03:55.181Z,5.70
2018-05-07T08:06:23.295Z,5.73
2018-05-07T08:08:51.394Z,6.20
2018-05-07T08:11:19.531Z,5.37
2018-05-07T08:13:47.642Z,6.00
2018-05-07T08:16:15.753Z,6.10
2018-05-07T08:18:43.882Z,6.00
2018-05-07T08:21:12.021Z,6.63
2018-05-07T08:23:40.123Z,6.10
2018-05-07T08:26:08.275Z,6.50
2018-05-07T08:28:36.392Z,5.00
2018-05-07T08:31:04.510Z,5.43
2018-05-07T08:33:32.666Z,5.87
2018-05-07T08:36:00.774Z,5.80
2018-05-07T08:38:28.888Z,5.77
2018-05-07T08:40:57.011Z,5.77
2018-05-07T08:43:25.133Z,6.18
2018-05-07T08:45:53.243Z,5.53
2018-05-07T08:48:21.369Z,5.73
2018-05-07T08:50:49.515Z,5.90
2018-05-07T08:53:17.622Z,6.63
2018-05-07T08:55:45.758Z,5.97
2018-05-07T08:58:13.876Z,6.37
2018-05-07T09:00:42.004Z,4.80
2018-05-07T09:03:22.600Z,5.10
2018-05-07T09:05:56.645Z,5.60
2018-05-07T09:08:37.498Z,5.70
2018-05-07T09:11:05.614Z,5.53
2018-05-07T09:13:33.816Z,4.10
2018-05-07T09:16:01.894Z,5.20
2018-05-07T09:18:30.015Z,5.40
2018-05-07T09:20:58.138Z,4.83
2018-05-07T09:23:26.277Z,5.15
2018-05-07T09:25:54.386Z,4.70
2018-05-07T09:28:22.493Z,4.90
2018-05-07T09:30:50.614Z,4.80
2018-05-07T09:33:18.738Z,4.90
2018-05-07T09:35:48.063Z,4.10
2018-05-07T09:38:16.252Z,3.80
2018-05-07T09:40:44.352Z,4.43
2018-05-07T09:43:12.487Z,4.82
2018-05-07T09:45:40.611Z,5.37
2018-05-07T09:48:08.732Z,5.00
2018-05-07T09:50:36.841Z,5.23
2018-05-07T09:53:04.965Z,4.57
2018-05-07T09:55:33.093Z,5.10
2018-05-07T09:58:04.094Z,5.10
2018-05-07T10:00:37.689Z,4.00
2018-05-07T10:03:05.863Z,5.03
2018-05-07T10:05:38.479Z,5.13
2018-05-07T10:08:06.595Z,4.67
2018-05-07T10:10:34.715Z,4.60
2018-05-07T10:13:02.831Z,4.60
2018-05-07T10:15:31.035Z,6.00
2018-05-07T10:17:59.139Z,4.80
2018-05-07T10:20:27.258Z,5.10
2018-05-07T10:22:55.381Z,4.70
2018-05-07T10:25:23.516Z,4.47
2018-05-07T10:27:51.654Z,3.90
2018-05-07T10:30:19.810Z,4.87
2018-05-07T10:32:47.960Z,4.40
2018-05-07T10:35:16.146Z,4.43
2018-05-07T10:37:44.242Z,4.13
2018-05-07T10:40:12.347Z,4.70
2018-05-07T10:42:40.514Z,4.37
2018-05-07T10:45:08.657Z,4.60
2018-05-07T10:47:36.783Z,3.40
2018-05-07T10:50:04.894Z,4.60
2018-05-07T10:52:33.026Z,4.20
2018-05-07T10:55:01.146Z,4.30
2018-05-07T10:57:29.282Z,4.80
2018-05-07T10:59:57.390Z,4.20
2018-05-07T11:02:25.499Z,4.60
2018-05-07T11:04:53.647Z,4.47
2018-05-07T11:07:21.865Z,4.28
2018-05-07T11:09:49.971Z,4.40
2018-05-07T11:12:18.103Z,4.80
2018-05-07T11:14:46.217Z,4.97
2018-05-07T11:17:14.396Z,4.50
2018-05-07T11:19:42.560Z,4.70
2018-05-07T11:22:10.676Z,4.23
2018-05-07T11:24:38.807Z,4.73
2018-05-07T11:27:06.986Z,4.20
2018-05-07T11:29:35.153Z,4.00
2018-05-07T11:32:03.284Z,3.33
2018-05-07T11:34:31.422Z,4.27
2018-05-07T11:36:59.548Z,4.30
2018-05-07T11:39:27.668Z,4.50
2018-05-07T11:41:55.776Z,4.00
2018-05-07T11:44:23.894Z,4.13
2018-05-07T11:46:52.026Z,3.43
2018-05-07T11:49:20.127Z,3.30
2018-05-07T11:51:48.256Z,3.70
2018-05-07T11:54:16.363Z,3.60
2018-05-07T11:56:44.461Z,3.63
2018-05-07T11:59:12.584Z,3.50
2018-05-07T12:01:40.718Z,2.77
2018-05-07T12:04:08.848Z,2.87
2018-05-07T12:06:36.994Z,2.95
2018-05-07T12:09:05.205Z,2.80
2018-05-07T12:11:33.312Z,2.50
2018-05-07T12:14:01.453Z,2.43
2018-05-07T12:16:29.571Z,2.27
2018-05-07T12:18:57.723Z,2.13
2018-05-07T12:21:25.857Z,2.60
2018-05-07T12:23:53.985Z,2.50
2018-05-07T12:26:22.106Z,2.28
2018-05-07T12:28:50.314Z,2.80
2018-05-07T12:31:18.428Z,2.97
2018-05-07T12:33:46.499Z,2.27
2018-05-07T12:36:14.623Z,2.80
2018-05-07T12:38:42.745Z,2.47
2018-05-07T12:41:10.892Z,2.33
2018-05-07T12:43:39.042Z,2.20
2018-05-07T12:46:07.159Z,2.60
2018-05-07T12:48:35.271Z,2.50
2018-05-07T12:51:03.385Z,2.80
2018-05-07T12:53:31.583Z,2.40
2018-05-07T12:55:59.685Z,3.13
2018-05-07T12:58:27.807Z,2.20
2018-05-07T13:00:56.796Z,2.20
2018-05-07T13:03:24.902Z,2.30
2018-05-07T13:05:53.091Z,2.27
2018-05-07T13:08:21.188Z,2.30
2018-05-07T13:10:49.311Z,1.97
2018-05-07T13:13:17.436Z,2.13
2018-05-07T13:15:45.585Z,2.20
2018-05-07T13:18:14.355Z,2.00
2018-05-07T13:20:42.477Z,2.10
2018-05-07T13:23:10.595Z,2.37
2018-05-07T13:25:38.710Z,2.53
2018-05-07T13:28:06.851Z,2.00
2018-05-07T13:30:34.958Z,2.87
2018-05-07T13:33:03.063Z,2.17
2018-05-07T13:35:31.194Z,2.40
2018-05-07T13:37:59.305Z,2.33
2018-05-07T13:40:27.412Z,2.00
2018-05-07T13:42:55.565Z,2.23
2018-05-07T13:45:23.669Z,2.47
2018-05-07T13:47:51.780Z,2.40
2018-05-07T13:50:19.957Z,2.40
2018-05-07T13:52:48.066Z,1.97
2018-05-07T13:55:16.198Z,2.45
2018-05-07T13:57:44.314Z,2.17
2018-05-07T14:00:12.447Z,2.60
2018-05-07T14:02:40.565Z,2.10
2018-05-07T14:05:08.714Z,2.30
2018-05-07T14:07:36.824Z,2.20
2018-05-07T14:10:04.951Z,2.37
2018-05-07T14:12:33.097Z,2.47
2018-05-07T14:15:01.212Z,2.23
2018-05-07T14:17:29.332Z,2.50
2018-05-07T14:19:57.446Z,2.20
2018-05-07T14:22:25.573Z,2.60
2018-05-07T14:24:53.705Z,1.90
2018-05-07T14:27:21.829Z,1.98
2018-05-07T14:29:49.935Z,2.30
2018-05-07T14:32:18.051Z,1.37
2018-05-07T14:34:46.181Z,2.00
2018-05-07T14:37:14.318Z,1.90
2018-05-07T14:39:42.422Z,2.33
2018-05-07T14:42:10.566Z,1.83
2018-05-07T14:44:38.678Z,2.00
2018-05-07T14:47:06.841Z,1.80
2018-05-07T14:49:34.955Z,2.30
2018-05-07T14:52:03.069Z,2.30
2018-05-07T14:54:31.229Z,2.10
2018-05-07T14:56:59.338Z,2.83
2018-05-07T14:59:27.448Z,1.80
2018-05-07T15:01:55.566Z,1.83
2018-05-07T15:04:23.850Z,1.90
2018-05-07T15:06:51.952Z,1.90
2018-05-07T15:09:20.107Z,2.40
2018-05-07T15:11:48.258Z,1.87
2018-05-07T15:14:22.249Z,1.93
2018-05-07T15:16:50.414Z,1.30
2018-05-07T15:19:18.548Z,1.40
2018-05-07T15:21:46.709Z,1.90
2018-05-07T15:24:14.814Z,2.10
2018-05-07T15:26:42.929Z,1.77
2018-05-07T15:29:11.127Z,1.70
2018-05-07T15:31:39.179Z,1.50
2018-05-07T15:34:07.578Z,1.73
2018-05-07T15:36:35.740Z,1.63
2018-05-07T15:39:03.856Z,1.47
2018-05-07T15:41:32.084Z,2.57
2018-05-07T15:44:00.280Z,1.17
2018-05-07T15:46:28.325Z,1.37
2018-05-07T15:48:56.478Z,1.80
2018-05-07T15:51:24.585Z,1.07
2018-05-07T15:53:52.744Z,1.60
2018-05-07T15:56:20.865Z,1.63
2018-05-07T15:58:48.968Z,1.70
2018-05-07T16:01:17.322Z,2.03
2018-05-07T16:03:45.451Z,1.43
2018-05-07T16:06:13.591Z,1.43
2018-05-07T16:08:41.751Z,2.30
2018-05-07T16:11:10.656Z,2.97
2018-05-07T16:13:38.795Z,1.40
2018-05-07T16:16:06.936Z,1.20
2018-05-07T16:18:35.061Z,1.10
2018-05-07T16:21:03.174Z,1.40
2018-05-07T16:23:31.619Z,1.00
2018-05-07T16:25:59.454Z,1.50
2018-05-07T16:28:27.561Z,1.63
2018-05-07T16:30:55.701Z,1.30
2018-05-07T16:33:23.808Z,1.80
2018-05-07T16:35:51.926Z,2.67
2018-05-07T16:38:20.055Z,3.50
2018-05-07T16:40:48.178Z,1.80
2018-05-07T16:43:16.293Z,1.62
2018-05-07T16:45:44.441Z,1.50
2018-05-07T16:48:12.552Z,1.50
2018-05-07T16:50:40.678Z,2.20
2018-05-07T16:53:08.809Z,1.80
2018-05-07T16:55:36.924Z,1.90
2018-05-07T16:58:05.037Z,1.97
2018-05-07T17:00:33.160Z,1.67
2018-05-07T17:03:01.272Z,1.97
2018-05-07T17:05:29.387Z,1.80
2018-05-07T17:07:57.526Z,1.70
2018-05-07T17:10:25.651Z,1.52
2018-05-07T17:12:53.768Z,1.70
2018-05-07T17:15:21.883Z,1.53
2018-05-07T17:17:49.998Z,2.07
2018-05-07T17:20:18.133Z,1.57
2018-05-07T17:22:46.268Z,1.20
2018-05-07T17:25:14.383Z,1.90
2018-05-07T17:27:42.485Z,1.40
2018-05-07T17:30:10.619Z,1.80
2018-05-07T17:32:38.734Z,1.60
2018-05-07T17:35:06.952Z,1.50
2018-05-07T17:37:35.072Z,1.57
2018-05-07T17:40:03.198Z,1.43
2018-05-07T17:42:31.321Z,1.60
2018-05-07T17:45:11.988Z,1.30
2018-05-07T17:47:51.820Z,1.53
2018-05-07T17:50:19.946Z,1.90
2018-05-07T17:52:48.071Z,1.53
2018-05-07T17:55:16.183Z,1.52
2018-05-07T17:57:44.305Z,1.30
2018-05-07T18:00:12.420Z,1.40
2018-05-07T18:02:40.526Z,1.93
2018-05-07T18:05:08.673Z,1.83
2018-05-07T18:07:36.798Z,2.00
2018-05-07T18:10:04.911Z,2.67
2018-05-07T18:12:33.032Z,2.47
2018-05-07T18:15:01.170Z,2.53
2018-05-07T18:17:29.275Z,2.30
2018-05-07T18:19:57.397Z,2.20
2018-05-07T18:22:25.524Z,2.50
2018-05-07T18:24:53.646Z,1.95
2018-05-07T18:27:21.794Z,1.90
2018-05-07T18:29:49.906Z,2.20
2018-05-07T18:32:18.019Z,2.37
2018-05-07T18:34:46.141Z,1.80
2018-05-07T18:37:14.277Z,2.08
2018-05-07T18:39:42.385Z,2.10
2018-05-07T18:42:10.513Z,1.90
2018-05-07T18:44:38.648Z,1.93
2018-05-07T18:47:06.809Z,2.40
2018-05-07T18:49:34.933Z,1.90
2018-05-07T18:52:03.109Z,2.87
2018-05-07T18:54:31.198Z,2.03
2018-05-07T18:56:59.345Z,2.70
2018-05-07T18:59:27.466Z,2.60
2018-05-07T19:01:55.563Z,2.93
2018-05-07T19:04:23.723Z,3.20
2018-05-07T19:06:51.834Z,2.22
2018-05-07T19:09:19.947Z,2.60
2018-05-07T19:11:48.355Z,2.47
2018-05-07T19:14:16.538Z,2.30
2018-05-07T19:16:44.620Z,2.20
2018-05-07T19:19:12.738Z,3.00
2018-05-07T19:21:40.873Z,2.50
2018-05-07T19:24:09.003Z,3.00
2018-05-07T19:26:37.120Z,1.77
2018-05-07T19:29:05.268Z,2.33
2018-05-07T19:31:33.379Z,2.47
2018-05-07T19:34:01.531Z,2.43
2018-05-07T19:36:29.666Z,2.13
2018-05-07T19:38:57.786Z,2.27
2018-05-07T19:41:25.912Z,2.75
2018-05-07T19:43:54.030Z,2.00
2018-05-07T19:46:22.159Z,2.37
2018-05-07T19:48:50.312Z,2.40
2018-05-07T19:51:18.429Z,2.53
2018-05-07T19:53:46.557Z,2.40
2018-05-07T19:56:14.705Z,2.17
2018-05-07T19:58:42.804Z,2.70
2018-05-07T20:01:10.898Z,2.77
2018-05-07T20:03:40.340Z,2.53
2018-05-07T20:06:08.451Z,2.87
2018-05-07T20:08:36.552Z,2.27
2018-05-07T20:11:04.691Z,2.30
2018-05-07T20:13:32.816Z,2.62
2018-05-07T20:16:00.931Z,2.50
2018-05-07T20:18:29.141Z,2.70
2018-05-07T20:20:57.266Z,2.40
2018-05-07T20:23:25.373Z,2.30
2018-05-07T20:25:53.501Z,2.10
2018-05-07T20:28:21.602Z,2.40
2018-05-07T20:30:49.712Z,2.50
2018-05-07T20:33:17.894Z,3.00
2018-05-07T20:35:45.999Z,3.13
2018-05-07T20:38:14.131Z,2.80
2018-05-07T20:40:42.259Z,2.50
2018-05-07T20:43:10.375Z,2.57
2018-05-07T20:45:38.532Z,3.10
2018-05-07T20:48:06.663Z,3.07
2018-05-07T20:50:34.781Z,2.70
2018-05-07T20:53:02.898Z,3.12
2018-05-07T20:55:31.135Z,2.83
2018-05-07T20:57:59.159Z,3.03
2018-05-07T21:00:27.267Z,3.10
2018-05-07T21:02:55.401Z,3.10
2018-05-07T21:05:23.511Z,2.50
2018-05-07T21:10:25.935Z,3.43
2018-05-07T21:12:54.046Z,3.00
2018-05-07T21:15:22.193Z,3.60
2018-05-07T21:17:50.307Z,3.13
2018-05-07T21:20:18.421Z,3.53
2018-05-07T21:22:46.534Z,3.70
2018-05-07T21:25:14.771Z,3.62
2018-05-07T21:27:42.880Z,4.05
2018-05-07T21:30:10.992Z,3.20
2018-05-07T21:32:39.129Z,3.70
2018-05-07T21:35:07.280Z,3.50
2018-05-07T21:37:35.401Z,3.35
2018-05-07T21:40:03.565Z,3.63
2018-05-07T21:42:31.675Z,3.50
2018-05-07T21:44:59.794Z,3.60
2018-05-07T21:47:27.937Z,4.10
2018-05-07T21:49:56.049Z,3.43
2018-05-07T21:52:24.160Z,3.50
2018-05-07T21:54:52.289Z,4.30
2018-05-07T21:57:20.420Z,4.18
2018-05-07T21:59:48.536Z,3.27
2018-05-07T22:02:16.711Z,3.80
2018-05-07T22:04:44.800Z,3.80
2018-05-07T22:07:12.929Z,3.70
2018-05-07T22:09:41.045Z,4.30
2018-05-07T22:12:09.172Z,3.57
2018-05-07T22:14:37.320Z,3.90
2018-05-07T22:17:05.451Z,3.77
2018-05-07T22:19:33.604Z,4.00
2018-05-07T22:22:01.714Z,4.10
2018-05-07T22:24:29.850Z,3.23
2018-05-07T22:26:57.971Z,3.53
2018-05-07T22:29:26.098Z,4.00
2018-05-07T22:31:54.233Z,3.70
2018-05-07T22:34:22.347Z,3.90
2018-05-07T22:36:50.465Z,3.43
2018-05-07T22:39:18.595Z,3.50
2018-05-07T22:41:46.719Z,4.07
2018-05-07T22:44:14.827Z,3.70
2018-05-07T22:46:43.003Z,4.30
2018-05-07T22:49:11.126Z,3.87
2018-05-07T22:51:39.248Z,3.97
2018-05-07T22:54:07.395Z,3.87
2018-05-07T22:56:35.503Z,3.77
2018-05-07T22:59:03.611Z,3.40
2018-05-07T23:01:31.755Z,4.80
2018-05-07T23:03:59.855Z,4.20
2018-05-07T23:06:27.965Z,4.13
2018-05-07T23:08:56.729Z,4.43
2018-05-07T23:11:24.853Z,3.90
2018-05-07T23:13:52.972Z,3.87
2018-05-07T23:16:21.104Z,4.90
2018-05-07T23:18:49.251Z,4.60
2018-05-07T23:21:17.358Z,4.87
2018-05-07T23:23:45.480Z,4.97
2018-05-07T23:26:13.609Z,4.63
2018-05-07T23:28:41.743Z,4.27
2018-05-07T23:31:09.951Z,5.00
2018-05-07T23:33:38.051Z,5.30
2018-05-07T23:36:06.167Z,4.70
2018-05-07T23:38:34.307Z,4.83
2018-05-07T23:41:02.412Z,4.67
2018-05-07T23:43:30.540Z,4.33
2018-05-07T23:45:58.672Z,4.60
2018-05-07T23:48:26.769Z,4.60
2018-05-07T23:50:54.897Z,4.47
2018-05-07T23:53:23.019Z,5.12
2018-05-07T23:55:51.161Z,4.40
2018-05-07T23:58:19.281Z,5.30
